sensor_id;sensor_type;location;lat;lon;timestamp;P1;durP1;ratioP1;P2;durP2;ratioP2
13415;SDS011;6779;50.150;8.680;2023-08-17T00:02:10;6.50;;;3.97;;
13415;SDS011;6779;50.150;8.680;2023-08-17T00:04:36;7.57;;;4.80;;
13415;SDS011;6779;50.150;8.680;2023-08-17T00:07:02;6.63;;;4.50;;
13415;SDS011;6779;50.150;8.680;2023-08-17T00:09:27;8.93;;;4.87;;
13415;SDS011;6779;50.150;8.680;2023-08-17T00:11:52;11.10;;;4.90;;
13415;SDS011;6779;50.150;8.680;2023-08-17T00:14:18;5.83;;;4.50;;
13415;SDS011;6779;50.150;8.680;2023-08-17T00:16:43;7.13;;;4.53;;
13415;SDS011;6779;50.150;8.680;2023-08-17T00:19:08;7.43;;;4.73;;
13415;SDS011;6779;50.150;8.680;2023-08-17T00:21:34;5.57;;;4.47;;
13415;SDS011;6779;50.150;8.680;2023-08-17T00:24:00;8.33;;;4.43;;
13415;SDS011;6779;50.150;8.680;2023-08-17T00:26:26;6.27;;;4.63;;
13415;SDS011;6779;50.150;8.680;2023-08-17T00:28:53;8.93;;;4.70;;
13415;SDS011;6779;50.150;8.680;2023-08-17T00:31:18;9.23;;;5.13;;
13415;SDS011;6779;50.150;8.680;2023-08-17T00:33:43;8.67;;;4.80;;
13415;SDS011;6779;50.150;8.680;2023-08-17T00:36:08;8.37;;;5.17;;
13415;SDS011;6779;50.150;8.680;2023-08-17T00:38:34;8.63;;;5.00;;
13415;SDS011;6779;50.150;8.680;2023-08-17T00:40:59;8.87;;;4.60;;
13415;SDS011;6779;50.150;8.680;2023-08-17T00:43:24;6.77;;;4.93;;
13415;SDS011;6779;50.150;8.680;2023-08-17T00:45:50;7.37;;;4.53;;
13415;SDS011;6779;50.150;8.680;2023-08-17T00:48:15;10.20;;;4.90;;
13415;SDS011;6779;50.150;8.680;2023-08-17T00:50:40;9.50;;;5.30;;
13415;SDS011;6779;50.150;8.680;2023-08-17T00:53:06;8.20;;;5.23;;
13415;SDS011;6779;50.150;8.680;2023-08-17T00:55:32;9.83;;;6.27;;
13415;SDS011;6779;50.150;8.680;2023-08-17T00:57:58;6.10;;;5.43;;
13415;SDS011;6779;50.150;8.680;2023-08-17T01:00:24;7.10;;;6.23;;
13415;SDS011;6779;50.150;8.680;2023-08-17T01:02:51;7.63;;;6.03;;
13415;SDS011;6779;50.150;8.680;2023-08-17T01:05:16;7.67;;;5.47;;
13415;SDS011;6779;50.150;8.680;2023-08-17T01:07:42;7.97;;;5.93;;
13415;SDS011;6779;50.150;8.680;2023-08-17T01:10:07;7.63;;;6.30;;
13415;SDS011;6779;50.150;8.680;2023-08-17T01:12:46;9.53;;;5.97;;
13415;SDS011;6779;50.150;8.680;2023-08-17T01:15:17;6.70;;;5.80;;
13415;SDS011;6779;50.150;8.680;2023-08-17T01:20:19;8.27;;;6.23;;
13415;SDS011;6779;50.150;8.680;2023-08-17T01:22:48;12.10;;;6.70;;
13415;SDS011;6779;50.150;8.680;2023-08-17T01:25:14;8.90;;;6.40;;
13415;SDS011;6779;50.150;8.680;2023-08-17T01:27:40;9.43;;;6.57;;
13415;SDS011;6779;50.150;8.680;2023-08-17T01:30:07;13.47;;;8.00;;
13415;SDS011;6779;50.150;8.680;2023-08-17T01:32:36;9.53;;;6.77;;
13415;SDS011;6779;50.150;8.680;2023-08-17T01:35:08;11.77;;;7.67;;
13415;SDS011;6779;50.150;8.680;2023-08-17T01:37:55;10.77;;;7.27;;
13415;SDS011;6779;50.150;8.680;2023-08-17T01:40:24;10.40;;;7.53;;
13415;SDS011;6779;50.150;8.680;2023-08-17T01:42:54;9.63;;;7.50;;
13415;SDS011;6779;50.150;8.680;2023-08-17T01:45:19;10.10;;;7.47;;
13415;SDS011;6779;50.150;8.680;2023-08-17T01:47:45;12.30;;;7.73;;
13415;SDS011;6779;50.150;8.680;2023-08-17T01:50:10;12.07;;;8.07;;
13415;SDS011;6779;50.150;8.680;2023-08-17T01:52:35;10.10;;;8.07;;
13415;SDS011;6779;50.150;8.680;2023-08-17T01:55:01;13.20;;;8.70;;
13415;SDS011;6779;50.150;8.680;2023-08-17T01:57:26;14.73;;;9.63;;
13415;SDS011;6779;50.150;8.680;2023-08-17T01:59:52;11.80;;;8.97;;
13415;SDS011;6779;50.150;8.680;2023-08-17T02:02:17;10.60;;;8.23;;
13415;SDS011;6779;50.150;8.680;2023-08-17T02:04:42;10.67;;;7.83;;
13415;SDS011;6779;50.150;8.680;2023-08-17T02:07:07;10.20;;;7.93;;
13415;SDS011;6779;50.150;8.680;2023-08-17T02:09:33;12.03;;;8.63;;
13415;SDS011;6779;50.150;8.680;2023-08-17T02:11:58;14.07;;;8.90;;
13415;SDS011;6779;50.150;8.680;2023-08-17T02:14:23;12.33;;;8.83;;
13415;SDS011;6779;50.150;8.680;2023-08-17T02:16:49;13.87;;;8.53;;
13415;SDS011;6779;50.150;8.680;2023-08-17T02:19:14;14.07;;;8.40;;
13415;SDS011;6779;50.150;8.680;2023-08-17T02:21:39;10.20;;;7.80;;
13415;SDS011;6779;50.150;8.680;2023-08-17T02:24:05;11.30;;;8.60;;
13415;SDS011;6779;50.150;8.680;2023-08-17T02:26:30;13.53;;;8.40;;
13415;SDS011;6779;50.150;8.680;2023-08-17T02:28:56;14.20;;;9.73;;
13415;SDS011;6779;50.150;8.680;2023-08-17T02:31:21;13.00;;;9.03;;
13415;SDS011;6779;50.150;8.680;2023-08-17T02:33:46;13.13;;;10.03;;
13415;SDS011;6779;50.150;8.680;2023-08-17T02:36:12;16.00;;;10.57;;
13415;SDS011;6779;50.150;8.680;2023-08-17T02:38:37;14.97;;;10.47;;
13415;SDS011;6779;50.150;8.680;2023-08-17T02:41:02;12.73;;;9.77;;
13415;SDS011;6779;50.150;8.680;2023-08-17T02:43:28;13.57;;;9.70;;
13415;SDS011;6779;50.150;8.680;2023-08-17T02:45:53;13.20;;;9.60;;
13415;SDS011;6779;50.150;8.680;2023-08-17T02:48:18;13.27;;;9.13;;
13415;SDS011;6779;50.150;8.680;2023-08-17T02:50:44;13.10;;;9.83;;
13415;SDS011;6779;50.150;8.680;2023-08-17T02:53:09;12.83;;;9.83;;
13415;SDS011;6779;50.150;8.680;2023-08-17T02:55:34;14.30;;;9.17;;
13415;SDS011;6779;50.150;8.680;2023-08-17T02:58:00;12.83;;;8.50;;
13415;SDS011;6779;50.150;8.680;2023-08-17T03:00:25;11.57;;;8.03;;
13415;SDS011;6779;50.150;8.680;2023-08-17T03:02:50;11.77;;;8.43;;
13415;SDS011;6779;50.150;8.680;2023-08-17T03:05:16;10.27;;;8.13;;
13415;SDS011;6779;50.150;8.680;2023-08-17T03:07:41;10.80;;;7.93;;
13415;SDS011;6779;50.150;8.680;2023-08-17T03:10:06;9.63;;;8.07;;
13415;SDS011;6779;50.150;8.680;2023-08-17T03:12:32;10.30;;;7.77;;
13415;SDS011;6779;50.150;8.680;2023-08-17T03:14:57;12.20;;;8.70;;
13415;SDS011;6779;50.150;8.680;2023-08-17T03:17:22;10.50;;;8.20;;
13415;SDS011;6779;50.150;8.680;2023-08-17T03:19:48;12.03;;;8.27;;
13415;SDS011;6779;50.150;8.680;2023-08-17T03:22:13;13.37;;;9.47;;
13415;SDS011;6779;50.150;8.680;2023-08-17T03:24:38;13.00;;;9.40;;
13415;SDS011;6779;50.150;8.680;2023-08-17T03:27:04;11.90;;;8.87;;
13415;SDS011;6779;50.150;8.680;2023-08-17T03:29:29;16.40;;;9.67;;
13415;SDS011;6779;50.150;8.680;2023-08-17T03:31:54;13.27;;;9.63;;
13415;SDS011;6779;50.150;8.680;2023-08-17T03:34:20;12.63;;;10.50;;
13415;SDS011;6779;50.150;8.680;2023-08-17T03:36:45;13.37;;;10.27;;
13415;SDS011;6779;50.150;8.680;2023-08-17T03:39:10;12.90;;;10.13;;
13415;SDS011;6779;50.150;8.680;2023-08-17T03:41:35;13.93;;;10.70;;
13415;SDS011;6779;50.150;8.680;2023-08-17T03:44:02;17.90;;;11.60;;
13415;SDS011;6779;50.150;8.680;2023-08-17T03:46:28;15.60;;;10.40;;
13415;SDS011;6779;50.150;8.680;2023-08-17T03:48:54;14.07;;;9.97;;
13415;SDS011;6779;50.150;8.680;2023-08-17T03:51:19;14.63;;;10.27;;
13415;SDS011;6779;50.150;8.680;2023-08-17T03:53:44;14.00;;;10.67;;
13415;SDS011;6779;50.150;8.680;2023-08-17T03:56:09;16.47;;;10.40;;
13415;SDS011;6779;50.150;8.680;2023-08-17T03:58:35;18.10;;;10.67;;
13415;SDS011;6779;50.150;8.680;2023-08-17T04:01:00;16.37;;;11.50;;
13415;SDS011;6779;50.150;8.680;2023-08-17T04:03:26;18.33;;;13.13;;
13415;SDS011;6779;50.150;8.680;2023-08-17T04:05:52;19.97;;;13.70;;
13415;SDS011;6779;50.150;8.680;2023-08-17T04:08:17;18.60;;;12.73;;
13415;SDS011;6779;50.150;8.680;2023-08-17T04:10:42;21.80;;;14.67;;
13415;SDS011;6779;50.150;8.680;2023-08-17T04:13:08;22.73;;;14.13;;
13415;SDS011;6779;50.150;8.680;2023-08-17T04:15:33;22.33;;;15.63;;
13415;SDS011;6779;50.150;8.680;2023-08-17T04:17:58;20.47;;;14.27;;
13415;SDS011;6779;50.150;8.680;2023-08-17T04:20:24;21.83;;;15.27;;
13415;SDS011;6779;50.150;8.680;2023-08-17T04:22:50;22.13;;;14.50;;
13415;SDS011;6779;50.150;8.680;2023-08-17T04:25:15;21.30;;;13.93;;
13415;SDS011;6779;50.150;8.680;2023-08-17T04:27:40;18.27;;;12.93;;
13415;SDS011;6779;50.150;8.680;2023-08-17T04:30:06;17.80;;;12.80;;
13415;SDS011;6779;50.150;8.680;2023-08-17T04:32:32;20.27;;;13.23;;
13415;SDS011;6779;50.150;8.680;2023-08-17T04:34:57;20.60;;;12.70;;
13415;SDS011;6779;50.150;8.680;2023-08-17T04:37:22;15.13;;;11.63;;
13415;SDS011;6779;50.150;8.680;2023-08-17T04:39:48;16.83;;;12.17;;
13415;SDS011;6779;50.150;8.680;2023-08-17T04:42:14;17.30;;;12.23;;
13415;SDS011;6779;50.150;8.680;2023-08-17T04:44:39;14.17;;;10.40;;
13415;SDS011;6779;50.150;8.680;2023-08-17T04:47:04;15.10;;;10.97;;
13415;SDS011;6779;50.150;8.680;2023-08-17T04:49:30;14.13;;;10.10;;
13415;SDS011;6779;50.150;8.680;2023-08-17T04:51:55;14.30;;;9.90;;
13415;SDS011;6779;50.150;8.680;2023-08-17T04:54:21;12.17;;;9.17;;
13415;SDS011;6779;50.150;8.680;2023-08-17T04:56:46;12.87;;;10.03;;
13415;SDS011;6779;50.150;8.680;2023-08-17T04:59:11;12.73;;;9.93;;
13415;SDS011;6779;50.150;8.680;2023-08-17T05:01:37;11.33;;;9.37;;
13415;SDS011;6779;50.150;8.680;2023-08-17T05:04:02;14.40;;;9.73;;
13415;SDS011;6779;50.150;8.680;2023-08-17T05:06:28;11.30;;;8.70;;
13415;SDS011;6779;50.150;8.680;2023-08-17T05:08:54;11.97;;;8.77;;
13415;SDS011;6779;50.150;8.680;2023-08-17T05:11:19;12.33;;;8.73;;
13415;SDS011;6779;50.150;8.680;2023-08-17T05:13:44;11.23;;;7.63;;
13415;SDS011;6779;50.150;8.680;2023-08-17T05:16:10;13.60;;;8.47;;
13415;SDS011;6779;50.150;8.680;2023-08-17T05:18:35;10.77;;;7.93;;
13415;SDS011;6779;50.150;8.680;2023-08-17T05:21:01;10.30;;;7.80;;
13415;SDS011;6779;50.150;8.680;2023-08-17T05:23:26;10.87;;;7.47;;
13415;SDS011;6779;50.150;8.680;2023-08-17T05:25:51;11.47;;;8.30;;
13415;SDS011;6779;50.150;8.680;2023-08-17T05:28:17;10.97;;;8.30;;
13415;SDS011;6779;50.150;8.680;2023-08-17T05:30:42;12.97;;;9.23;;
13415;SDS011;6779;50.150;8.680;2023-08-17T05:33:08;12.87;;;9.47;;
13415;SDS011;6779;50.150;8.680;2023-08-17T05:35:33;12.50;;;9.47;;
13415;SDS011;6779;50.150;8.680;2023-08-17T05:37:58;12.67;;;10.20;;
13415;SDS011;6779;50.150;8.680;2023-08-17T05:40:24;12.07;;;9.97;;
13415;SDS011;6779;50.150;8.680;2023-08-17T05:42:49;13.40;;;9.90;;
13415;SDS011;6779;50.150;8.680;2023-08-17T05:45:14;13.27;;;10.00;;
13415;SDS011;6779;50.150;8.680;2023-08-17T05:47:40;14.50;;;10.67;;
13415;SDS011;6779;50.150;8.680;2023-08-17T05:50:05;13.50;;;11.10;;
13415;SDS011;6779;50.150;8.680;2023-08-17T05:52:31;12.83;;;10.23;;
13415;SDS011;6779;50.150;8.680;2023-08-17T05:54:56;12.53;;;9.90;;
13415;SDS011;6779;50.150;8.680;2023-08-17T05:57:21;12.20;;;9.97;;
13415;SDS011;6779;50.150;8.680;2023-08-17T05:59:47;12.20;;;8.87;;
13415;SDS011;6779;50.150;8.680;2023-08-17T06:02:12;14.60;;;10.60;;
13415;SDS011;6779;50.150;8.680;2023-08-17T06:04:37;14.10;;;9.87;;
13415;SDS011;6779;50.150;8.680;2023-08-17T06:07:03;16.13;;;10.80;;
13415;SDS011;6779;50.150;8.680;2023-08-17T06:09:28;24.53;;;13.33;;
13415;SDS011;6779;50.150;8.680;2023-08-17T06:11:54;18.07;;;10.57;;
13415;SDS011;6779;50.150;8.680;2023-08-17T06:14:19;30.37;;;11.50;;
13415;SDS011;6779;50.150;8.680;2023-08-17T06:16:44;26.83;;;12.63;;
13415;SDS011;6779;50.150;8.680;2023-08-17T06:19:10;23.50;;;11.30;;
13415;SDS011;6779;50.150;8.680;2023-08-17T06:21:35;14.73;;;9.70;;
13415;SDS011;6779;50.150;8.680;2023-08-17T06:24:00;24.17;;;11.17;;
13415;SDS011;6779;50.150;8.680;2023-08-17T06:26:25;24.77;;;10.97;;
13415;SDS011;6779;50.150;8.680;2023-08-17T06:28:51;13.53;;;9.10;;
13415;SDS011;6779;50.150;8.680;2023-08-17T06:31:16;8.73;;;7.00;;
13415;SDS011;6779;50.150;8.680;2023-08-17T06:33:41;15.83;;;8.97;;
13415;SDS011;6779;50.150;8.680;2023-08-17T06:36:07;17.73;;;9.57;;
13415;SDS011;6779;50.150;8.680;2023-08-17T06:38:32;16.63;;;9.70;;
13415;SDS011;6779;50.150;8.680;2023-08-17T06:40:57;19.47;;;10.13;;
13415;SDS011;6779;50.150;8.680;2023-08-17T06:43:23;18.77;;;10.23;;
13415;SDS011;6779;50.150;8.680;2023-08-17T06:45:48;14.13;;;10.00;;
13415;SDS011;6779;50.150;8.680;2023-08-17T06:48:13;18.10;;;8.80;;
13415;SDS011;6779;50.150;8.680;2023-08-17T06:50:38;15.87;;;10.13;;
13415;SDS011;6779;50.150;8.680;2023-08-17T06:53:04;15.93;;;8.47;;
13415;SDS011;6779;50.150;8.680;2023-08-17T06:55:29;14.13;;;8.37;;
13415;SDS011;6779;50.150;8.680;2023-08-17T06:57:55;10.03;;;8.17;;
13415;SDS011;6779;50.150;8.680;2023-08-17T07:00:20;8.93;;;7.47;;
13415;SDS011;6779;50.150;8.680;2023-08-17T07:02:48;16.87;;;8.90;;
13415;SDS011;6779;50.150;8.680;2023-08-17T07:05:15;8.07;;;6.90;;
13415;SDS011;6779;50.150;8.680;2023-08-17T07:07:40;7.67;;;6.80;;
13415;SDS011;6779;50.150;8.680;2023-08-17T07:10:07;8.50;;;5.90;;
13415;SDS011;6779;50.150;8.680;2023-08-17T07:12:32;8.27;;;6.40;;
13415;SDS011;6779;50.150;8.680;2023-08-17T07:14:58;9.07;;;7.07;;
13415;SDS011;6779;50.150;8.680;2023-08-17T07:17:23;11.77;;;7.13;;
13415;SDS011;6779;50.150;8.680;2023-08-17T07:19:48;12.33;;;7.10;;
13415;SDS011;6779;50.150;8.680;2023-08-17T07:22:14;12.13;;;7.10;;
13415;SDS011;6779;50.150;8.680;2023-08-17T07:24:41;7.97;;;6.03;;
13415;SDS011;6779;50.150;8.680;2023-08-17T07:27:06;7.33;;;5.93;;
13415;SDS011;6779;50.150;8.680;2023-08-17T07:29:31;8.30;;;5.93;;
13415;SDS011;6779;50.150;8.680;2023-08-17T07:31:57;7.10;;;5.40;;
13415;SDS011;6779;50.150;8.680;2023-08-17T07:34:26;9.77;;;5.37;;
13415;SDS011;6779;50.150;8.680;2023-08-17T07:36:51;6.30;;;5.50;;
13415;SDS011;6779;50.150;8.680;2023-08-17T07:39:16;7.03;;;5.60;;
13415;SDS011;6779;50.150;8.680;2023-08-17T07:41:43;13.90;;;5.83;;
13415;SDS011;6779;50.150;8.680;2023-08-17T07:44:08;7.53;;;4.53;;
13415;SDS011;6779;50.150;8.680;2023-08-17T07:46:34;7.60;;;6.03;;
13415;SDS011;6779;50.150;8.680;2023-08-17T07:48:59;7.60;;;5.30;;
13415;SDS011;6779;50.150;8.680;2023-08-17T07:51:24;9.00;;;5.50;;
13415;SDS011;6779;50.150;8.680;2023-08-17T07:53:50;6.57;;;5.00;;
13415;SDS011;6779;50.150;8.680;2023-08-17T07:56:15;9.93;;;5.23;;
13415;SDS011;6779;50.150;8.680;2023-08-17T07:58:40;6.43;;;4.00;;
13415;SDS011;6779;50.150;8.680;2023-08-17T08:01:06;10.17;;;5.97;;
13415;SDS011;6779;50.150;8.680;2023-08-17T08:03:31;6.53;;;4.27;;
13415;SDS011;6779;50.150;8.680;2023-08-17T08:05:57;3.80;;;3.43;;
13415;SDS011;6779;50.150;8.680;2023-08-17T08:08:22;5.93;;;4.13;;
13415;SDS011;6779;50.150;8.680;2023-08-17T08:10:47;8.37;;;4.47;;
13415;SDS011;6779;50.150;8.680;2023-08-17T08:13:13;15.50;;;5.73;;
13415;SDS011;6779;50.150;8.680;2023-08-17T08:15:39;9.63;;;4.13;;
13415;SDS011;6779;50.150;8.680;2023-08-17T08:18:04;10.43;;;4.90;;
13415;SDS011;6779;50.150;8.680;2023-08-17T08:20:29;4.73;;;3.50;;
13415;SDS011;6779;50.150;8.680;2023-08-17T08:22:55;4.63;;;3.77;;
13415;SDS011;6779;50.150;8.680;2023-08-17T08:25:20;4.07;;;3.70;;
13415;SDS011;6779;50.150;8.680;2023-08-17T08:27:45;6.17;;;3.87;;
13415;SDS011;6779;50.150;8.680;2023-08-17T08:30:11;4.00;;;3.13;;
13415;SDS011;6779;50.150;8.680;2023-08-17T08:32:36;4.67;;;3.70;;
13415;SDS011;6779;50.150;8.680;2023-08-17T08:35:01;5.30;;;3.30;;
13415;SDS011;6779;50.150;8.680;2023-08-17T08:37:27;4.43;;;3.40;;
13415;SDS011;6779;50.150;8.680;2023-08-17T08:39:53;3.40;;;3.10;;
13415;SDS011;6779;50.150;8.680;2023-08-17T08:42:20;3.60;;;3.30;;
13415;SDS011;6779;50.150;8.680;2023-08-17T08:44:46;3.67;;;2.60;;
13415;SDS011;6779;50.150;8.680;2023-08-17T08:47:12;2.60;;;2.40;;
13415;SDS011;6779;50.150;8.680;2023-08-17T08:49:39;6.67;;;3.13;;
13415;SDS011;6779;50.150;8.680;2023-08-17T08:52:07;6.70;;;3.40;;
13415;SDS011;6779;50.150;8.680;2023-08-17T08:54:33;3.00;;;2.70;;
13415;SDS011;6779;50.150;8.680;2023-08-17T08:57:01;2.83;;;2.60;;
13415;SDS011;6779;50.150;8.680;2023-08-17T08:59:29;2.73;;;2.47;;
13415;SDS011;6779;50.150;8.680;2023-08-17T09:01:57;4.10;;;2.53;;
13415;SDS011;6779;50.150;8.680;2023-08-17T09:04:23;10.07;;;3.10;;
13415;SDS011;6779;50.150;8.680;2023-08-17T09:06:48;4.30;;;2.57;;
13415;SDS011;6779;50.150;8.680;2023-08-17T09:09:15;3.57;;;2.47;;
13415;SDS011;6779;50.150;8.680;2023-08-17T09:11:42;3.13;;;2.37;;
13415;SDS011;6779;50.150;8.680;2023-08-17T09:14:07;3.53;;;1.97;;
13415;SDS011;6779;50.150;8.680;2023-08-17T09:16:32;5.87;;;2.60;;
13415;SDS011;6779;50.150;8.680;2023-08-17T09:18:58;3.07;;;1.70;;
13415;SDS011;6779;50.150;8.680;2023-08-17T09:21:24;3.40;;;2.20;;
13415;SDS011;6779;50.150;8.680;2023-08-17T09:23:54;3.10;;;1.97;;
13415;SDS011;6779;50.150;8.680;2023-08-17T09:26:20;1.40;;;1.30;;
13415;SDS011;6779;50.150;8.680;2023-08-17T09:28:49;2.88;;;1.75;;
13415;SDS011;6779;50.150;8.680;2023-08-17T09:31:15;1.85;;;1.40;;
13415;SDS011;6779;50.150;8.680;2023-08-17T09:33:40;4.72;;;1.83;;
13415;SDS011;6779;50.150;8.680;2023-08-17T09:36:05;1.40;;;1.30;;
13415;SDS011;6779;50.150;8.680;2023-08-17T09:38:31;2.20;;;1.85;;
13415;SDS011;6779;50.150;8.680;2023-08-17T09:40:57;2.40;;;1.80;;
13415;SDS011;6779;50.150;8.680;2023-08-17T09:43:23;2.33;;;1.80;;
13415;SDS011;6779;50.150;8.680;2023-08-17T09:45:50;1.73;;;1.58;;
13415;SDS011;6779;50.150;8.680;2023-08-17T09:48:16;2.25;;;1.42;;
13415;SDS011;6779;50.150;8.680;2023-08-17T09:50:42;3.13;;;1.45;;
13415;SDS011;6779;50.150;8.680;2023-08-17T09:53:12;3.80;;;2.20;;
13415;SDS011;6779;50.150;8.680;2023-08-17T09:55:44;1.40;;;1.30;;
13415;SDS011;6779;50.150;8.680;2023-08-17T09:58:10;1.75;;;1.60;;
13415;SDS011;6779;50.150;8.680;2023-08-17T10:00:40;1.80;;;1.45;;
13415;SDS011;6779;50.150;8.680;2023-08-17T10:03:09;1.90;;;1.50;;
13415;SDS011;6779;50.150;8.680;2023-08-17T10:05:35;1.70;;;1.50;;
13415;SDS011;6779;50.150;8.680;2023-08-17T10:08:03;3.75;;;1.90;;
13415;SDS011;6779;50.150;8.680;2023-08-17T10:10:29;1.70;;;1.60;;
13415;SDS011;6779;50.150;8.680;2023-08-17T10:15:32;2.67;;;1.45;;
13415;SDS011;6779;50.150;8.680;2023-08-17T10:18:00;3.05;;;2.30;;
13415;SDS011;6779;50.150;8.680;2023-08-17T10:20:31;6.68;;;1.80;;
13415;SDS011;6779;50.150;8.680;2023-08-17T10:23:10;1.60;;;1.50;;
13415;SDS011;6779;50.150;8.680;2023-08-17T10:25:39;2.05;;;1.55;;
13415;SDS011;6779;50.150;8.680;2023-08-17T10:28:06;1.83;;;1.73;;
13415;SDS011;6779;50.150;8.680;2023-08-17T10:30:33;2.63;;;1.73;;
13415;SDS011;6779;50.150;8.680;2023-08-17T10:32:59;1.50;;;1.40;;
13415;SDS011;6779;50.150;8.680;2023-08-17T10:35:25;1.80;;;1.40;;
13415;SDS011;6779;50.150;8.680;2023-08-17T10:37:50;1.75;;;1.65;;
13415;SDS011;6779;50.150;8.680;2023-08-17T10:40:16;1.70;;;1.50;;
13415;SDS011;6779;50.150;8.680;2023-08-17T10:42:41;1.60;;;1.50;;
13415;SDS011;6779;50.150;8.680;2023-08-17T10:48:37;1.90;;;1.80;;
13415;SDS011;6779;50.150;8.680;2023-08-17T10:50:40;1.55;;;1.45;;
13415;SDS011;6779;50.150;8.680;2023-08-17T10:53:09;2.30;;;1.40;;
13415;SDS011;6779;50.150;8.680;2023-08-17T10:55:44;1.50;;;1.40;;
13415;SDS011;6779;50.150;8.680;2023-08-17T10:58:10;3.35;;;1.67;;
13415;SDS011;6779;50.150;8.680;2023-08-17T11:00:38;1.98;;;1.30;;
13415;SDS011;6779;50.150;8.680;2023-08-17T11:03:04;1.60;;;1.50;;
13415;SDS011;6779;50.150;8.680;2023-08-17T11:05:41;2.53;;;1.40;;
13415;SDS011;6779;50.150;8.680;2023-08-17T11:10:56;2.35;;;1.50;;
13415;SDS011;6779;50.150;8.680;2023-08-17T11:13:42;4.25;;;1.77;;
13415;SDS011;6779;50.150;8.680;2023-08-17T11:16:09;12.05;;;1.90;;
13415;SDS011;6779;50.150;8.680;2023-08-17T11:18:35;4.40;;;1.58;;
13415;SDS011;6779;50.150;8.680;2023-08-17T11:21:04;5.13;;;2.53;;
13415;SDS011;6779;50.150;8.680;2023-08-17T11:23:30;3.88;;;1.70;;
13415;SDS011;6779;50.150;8.680;2023-08-17T11:25:56;1.75;;;1.65;;
13415;SDS011;6779;50.150;8.680;2023-08-17T11:28:22;7.55;;;2.13;;
13415;SDS011;6779;50.150;8.680;2023-08-17T11:30:57;2.92;;;1.40;;
13415;SDS011;6779;50.150;8.680;2023-08-17T11:33:24;3.38;;;1.48;;
13415;SDS011;6779;50.150;8.680;2023-08-17T11:35:50;4.72;;;1.40;;
13415;SDS011;6779;50.150;8.680;2023-08-17T11:38:15;2.03;;;1.30;;
13415;SDS011;6779;50.150;8.680;2023-08-17T11:40:41;2.35;;;1.45;;
13415;SDS011;6779;50.150;8.680;2023-08-17T11:43:06;2.42;;;1.50;;
13415;SDS011;6779;50.150;8.680;2023-08-17T11:45:32;1.50;;;1.40;;
13415;SDS011;6779;50.150;8.680;2023-08-17T11:47:57;1.73;;;1.63;;
13415;SDS011;6779;50.150;8.680;2023-08-17T11:50:24;2.35;;;1.45;;
13415;SDS011;6779;50.150;8.680;2023-08-17T11:52:49;1.48;;;1.30;;
13415;SDS011;6779;50.150;8.680;2023-08-17T11:55:15;1.52;;;1.42;;
13415;SDS011;6779;50.150;8.680;2023-08-17T11:57:42;2.13;;;1.63;;
13415;SDS011;6779;50.150;8.680;2023-08-17T12:00:08;2.90;;;1.80;;
13415;SDS011;6779;50.150;8.680;2023-08-17T12:02:35;2.58;;;2.00;;
13415;SDS011;6779;50.150;8.680;2023-08-17T12:05:03;3.03;;;1.95;;
13415;SDS011;6779;50.150;8.680;2023-08-17T12:07:31;2.55;;;2.20;;
13415;SDS011;6779;50.150;8.680;2023-08-17T12:09:56;3.30;;;1.88;;
13415;SDS011;6779;50.150;8.680;2023-08-17T12:12:22;2.03;;;1.83;;
13415;SDS011;6779;50.150;8.680;2023-08-17T12:14:47;2.30;;;2.00;;
13415;SDS011;6779;50.150;8.680;2023-08-17T12:17:17;1.77;;;1.67;;
13415;SDS011;6779;50.150;8.680;2023-08-17T12:19:43;16.63;;;3.47;;
13415;SDS011;6779;50.150;8.680;2023-08-17T12:22:08;4.72;;;2.30;;
13415;SDS011;6779;50.150;8.680;2023-08-17T12:24:34;2.13;;;1.83;;
13415;SDS011;6779;50.150;8.680;2023-08-17T12:27:00;2.13;;;1.90;;
13415;SDS011;6779;50.150;8.680;2023-08-17T12:29:27;3.35;;;2.00;;
13415;SDS011;6779;50.150;8.680;2023-08-17T12:31:52;2.13;;;1.90;;
13415;SDS011;6779;50.150;8.680;2023-08-17T12:34:17;5.18;;;1.85;;
13415;SDS011;6779;50.150;8.680;2023-08-17T12:36:43;3.08;;;1.90;;
13415;SDS011;6779;50.150;8.680;2023-08-17T12:39:09;2.42;;;1.80;;
13415;SDS011;6779;50.150;8.680;2023-08-17T12:41:34;2.88;;;1.70;;
13415;SDS011;6779;50.150;8.680;2023-08-17T12:44:00;2.05;;;1.80;;
13415;SDS011;6779;50.150;8.680;2023-08-17T12:46:26;3.08;;;2.20;;
13415;SDS011;6779;50.150;8.680;2023-08-17T12:48:51;2.45;;;1.75;;
13415;SDS011;6779;50.150;8.680;2023-08-17T12:51:16;2.53;;;2.10;;
13415;SDS011;6779;50.150;8.680;2023-08-17T12:53:42;3.35;;;2.05;;
13415;SDS011;6779;50.150;8.680;2023-08-17T12:56:07;5.72;;;5.00;;
13415;SDS011;6779;50.150;8.680;2023-08-17T12:58:33;5.65;;;2.90;;
13415;SDS011;6779;50.150;8.680;2023-08-17T13:00:58;2.22;;;2.03;;
13415;SDS011;6779;50.150;8.680;2023-08-17T13:03:23;4.05;;;2.10;;
13415;SDS011;6779;50.150;8.680;2023-08-17T13:05:49;2.20;;;2.00;;
13415;SDS011;6779;50.150;8.680;2023-08-17T13:08:14;3.47;;;1.90;;
13415;SDS011;6779;50.150;8.680;2023-08-17T13:10:40;2.97;;;1.98;;
13415;SDS011;6779;50.150;8.680;2023-08-17T13:13:06;2.10;;;1.90;;
13415;SDS011;6779;50.150;8.680;2023-08-17T13:15:32;2.78;;;2.40;;
13415;SDS011;6779;50.150;8.680;2023-08-17T13:17:57;2.88;;;2.08;;
13415;SDS011;6779;50.150;8.680;2023-08-17T13:20:23;2.88;;;2.67;;
13415;SDS011;6779;50.150;8.680;2023-08-17T13:22:48;3.30;;;2.28;;
13415;SDS011;6779;50.150;8.680;2023-08-17T13:25:14;3.05;;;2.75;;
13415;SDS011;6779;50.150;8.680;2023-08-17T13:27:39;2.53;;;2.33;;
13415;SDS011;6779;50.150;8.680;2023-08-17T13:30:05;2.47;;;2.28;;
13415;SDS011;6779;50.150;8.680;2023-08-17T13:32:30;2.30;;;2.10;;
13415;SDS011;6779;50.150;8.680;2023-08-17T13:34:56;2.63;;;2.17;;
13415;SDS011;6779;50.150;8.680;2023-08-17T13:37:21;3.40;;;2.70;;
13415;SDS011;6779;50.150;8.680;2023-08-17T13:39:47;3.10;;;2.70;;
13415;SDS011;6779;50.150;8.680;2023-08-17T13:42:12;4.28;;;2.58;;
13415;SDS011;6779;50.150;8.680;2023-08-17T13:44:38;2.83;;;2.47;;
13415;SDS011;6779;50.150;8.680;2023-08-17T13:47:03;4.60;;;2.65;;
13415;SDS011;6779;50.150;8.680;2023-08-17T13:49:29;2.45;;;2.25;;
13415;SDS011;6779;50.150;8.680;2023-08-17T13:51:54;4.30;;;2.95;;
13415;SDS011;6779;50.150;8.680;2023-08-17T13:54:21;2.92;;;2.60;;
13415;SDS011;6779;50.150;8.680;2023-08-17T13:56:46;2.53;;;2.33;;
13415;SDS011;6779;50.150;8.680;2023-08-17T13:59:12;3.38;;;2.60;;
13415;SDS011;6779;50.150;8.680;2023-08-17T14:01:37;2.78;;;2.40;;
13415;SDS011;6779;50.150;8.680;2023-08-17T14:04:03;2.92;;;2.63;;
13415;SDS011;6779;50.150;8.680;2023-08-17T14:06:29;2.95;;;2.65;;
13415;SDS011;6779;50.150;8.680;2023-08-17T14:08:55;2.92;;;2.58;;
13415;SDS011;6779;50.150;8.680;2023-08-17T14:11:20;4.10;;;2.50;;
13415;SDS011;6779;50.150;8.680;2023-08-17T14:13:45;3.92;;;2.35;;
13415;SDS011;6779;50.150;8.680;2023-08-17T14:16:10;3.28;;;2.53;;
13415;SDS011;6779;50.150;8.680;2023-08-17T14:18:36;3.80;;;2.47;;
13415;SDS011;6779;50.150;8.680;2023-08-17T14:21:02;3.20;;;2.50;;
13415;SDS011;6779;50.150;8.680;2023-08-17T14:23:27;2.70;;;2.50;;
13415;SDS011;6779;50.150;8.680;2023-08-17T14:25:52;3.45;;;2.67;;
13415;SDS011;6779;50.150;8.680;2023-08-17T14:28:18;3.63;;;2.13;;
13415;SDS011;6779;50.150;8.680;2023-08-17T14:30:43;3.78;;;2.67;;
13415;SDS011;6779;50.150;8.680;2023-08-17T14:33:09;3.67;;;2.20;;
13415;SDS011;6779;50.150;8.680;2023-08-17T14:35:34;3.67;;;3.22;;
13415;SDS011;6779;50.150;8.680;2023-08-17T14:37:59;3.47;;;3.10;;
13415;SDS011;6779;50.150;8.680;2023-08-17T14:40:26;2.95;;;2.40;;
13415;SDS011;6779;50.150;8.680;2023-08-17T14:42:52;2.67;;;2.47;;
13415;SDS011;6779;50.150;8.680;2023-08-17T14:45:17;3.30;;;2.60;;
13415;SDS011;6779;50.150;8.680;2023-08-17T14:47:42;4.30;;;2.45;;
13415;SDS011;6779;50.150;8.680;2023-08-17T14:50:08;2.60;;;2.20;;
13415;SDS011;6779;50.150;8.680;2023-08-17T14:52:33;3.80;;;2.58;;
13415;SDS011;6779;50.150;8.680;2023-08-17T14:54:58;6.40;;;2.80;;
13415;SDS011;6779;50.150;8.680;2023-08-17T14:57:24;2.78;;;2.58;;